sensor_id;sensor_type;location;lat;lon;timestamp;pressure;altitude;pressure_sealevel;temperature;humidity
24336;BME280;33098;52.400;16.880;2023-02-17T00:01:41;101129.11;;;6.90;79.44
24336;BME280;33098;52.400;16.880;2023-02-17T00:04:11;101129.08;;;6.94;79.79
24336;BME280;33098;52.400;16.880;2023-02-17T00:06:41;101129.24;;;7.01;79.89
24336;BME280;33098;52.400;16.880;2023-02-17T00:09:08;101121.50;;;7.00;79.69
24336;BME280;33098;52.400;16.880;2023-02-17T00:11:40;101124.45;;;7.01;79.62
24336;BME280;33098;52.400;16.880;2023-02-17T00:14:11;101115.95;;;7.02;79.73
24336;BME280;33098;52.400;16.880;2023-02-17T00:16:44;101108.86;;;6.99;79.55
24336;BME280;33098;52.400;16.880;2023-02-17T00:19:12;101110.65;;;6.98;79.48
24336;BME280;33098;52.400;16.880;2023-02-17T00:21:58;101110.20;;;7.00;79.63
24336;BME280;33098;52.400;16.880;2023-02-17T00:24:29;101108.59;;;7.01;79.60
24336;BME280;33098;52.400;16.880;2023-02-17T00:26:57;101108.54;;;6.98;79.58
24336;BME280;33098;52.400;16.880;2023-02-17T00:29:32;101104.88;;;6.97;79.56
24336;BME280;33098;52.400;16.880;2023-02-17T00:32:06;101102.77;;;6.97;79.70
24336;BME280;33098;52.400;16.880;2023-02-17T00:34:36;101102.20;;;6.95;79.69
24336;BME280;33098;52.400;16.880;2023-02-17T00:37:04;101099.43;;;6.97;79.87
24336;BME280;33098;52.400;16.880;2023-02-17T00:39:37;101100.27;;;7.05;79.98
24336;BME280;33098;52.400;16.880;2023-02-17T00:42:07;101100.79;;;7.05;79.72
24336;BME280;33098;52.400;16.880;2023-02-17T00:44:34;101101.30;;;7.02;79.80
24336;BME280;33098;52.400;16.880;2023-02-17T00:47:04;101100.26;;;7.05;79.84
24336;BME280;33098;52.400;16.880;2023-02-17T00:49:34;101099.11;;;7.03;79.65
24336;BME280;33098;52.400;16.880;2023-02-17T00:52:04;101100.38;;;6.96;79.65
24336;BME280;33098;52.400;16.880;2023-02-17T00:54:33;101093.52;;;7.02;79.95
24336;BME280;33098;52.400;16.880;2023-02-17T00:57:02;101094.56;;;7.09;79.99
24336;BME280;33098;52.400;16.880;2023-02-17T00:59:34;101091.16;;;7.07;79.82
24336;BME280;33098;52.400;16.880;2023-02-17T01:02:01;101091.41;;;7.02;79.72
24336;BME280;33098;52.400;16.880;2023-02-17T01:04:33;101093.73;;;7.05;80.00
24336;BME280;33098;52.400;16.880;2023-02-17T01:07:00;101094.05;;;7.06;79.75
24336;BME280;33098;52.400;16.880;2023-02-17T01:09:33;101089.09;;;6.99;79.66
24336;BME280;33098;52.400;16.880;2023-02-17T01:12:00;101087.56;;;6.98;79.78
24336;BME280;33098;52.400;16.880;2023-02-17T01:14:30;101089.26;;;6.93;79.69
24336;BME280;33098;52.400;16.880;2023-02-17T01:16:57;101079.76;;;6.95;80.00
24336;BME280;33098;52.400;16.880;2023-02-17T01:19:27;101076.85;;;7.04;80.19
24336;BME280;33098;52.400;16.880;2023-02-17T01:21:56;101067.59;;;6.99;79.84
24336;BME280;33098;52.400;16.880;2023-02-17T01:24:26;101062.48;;;6.95;79.89
24336;BME280;33098;52.400;16.880;2023-02-17T01:26:55;101063.31;;;6.93;79.92
24336;BME280;33098;52.400;16.880;2023-02-17T01:29:27;101058.13;;;6.94;80.05
24336;BME280;33098;52.400;16.880;2023-02-17T01:31:56;101047.59;;;7.00;80.27
24336;BME280;33098;52.400;16.880;2023-02-17T01:34:24;101045.89;;;6.98;80.03
24336;BME280;33098;52.400;16.880;2023-02-17T01:36:51;101045.67;;;6.93;79.99
24336;BME280;33098;52.400;16.880;2023-02-17T01:39:18;101047.73;;;6.87;80.05
24336;BME280;33098;52.400;16.880;2023-02-17T01:41:47;101039.96;;;6.81;80.08
24336;BME280;33098;52.400;16.880;2023-02-17T01:44:20;101038.58;;;6.87;80.45
24336;BME280;33098;52.400;16.880;2023-02-17T01:46:54;101036.39;;;6.92;80.29
24336;BME280;33098;52.400;16.880;2023-02-17T01:49:39;101032.36;;;6.88;80.18
24336;BME280;33098;52.400;16.880;2023-02-17T01:52:17;101025.59;;;6.86;80.33
24336;BME280;33098;52.400;16.880;2023-02-17T01:55:00;101018.70;;;6.89;80.56
24336;BME280;33098;52.400;16.880;2023-02-17T01:57:31;101019.70;;;6.87;80.44
24336;BME280;33098;52.400;16.880;2023-02-17T02:00:04;101018.04;;;6.88;80.58
24336;BME280;33098;52.400;16.880;2023-02-17T02:02:41;101014.27;;;6.93;80.67
24336;BME280;33098;52.400;16.880;2023-02-17T02:05:19;101012.21;;;6.95;80.59
24336;BME280;33098;52.400;16.880;2023-02-17T02:07:50;101011.48;;;6.89;80.47
24336;BME280;33098;52.400;16.880;2023-02-17T02:10:20;101005.36;;;6.88;80.59
24336;BME280;33098;52.400;16.880;2023-02-17T02:12:49;101003.11;;;6.84;80.48
24336;BME280;33098;52.400;16.880;2023-02-17T02:15:20;101000.12;;;6.80;80.57
24336;BME280;33098;52.400;16.880;2023-02-17T02:20:33;101002.46;;;6.73;80.72
24336;BME280;33098;52.400;16.880;2023-02-17T02:31:52;100986.41;;;6.76;81.06
24336;BME280;33098;52.400;16.880;2023-02-17T02:34:30;100987.48;;;6.79;81.26
24336;BME280;33098;52.400;16.880;2023-02-17T02:37:17;100985.58;;;6.82;81.29
24336;BME280;33098;52.400;16.880;2023-02-17T02:39:54;100987.66;;;6.92;81.42
24336;BME280;33098;52.400;16.880;2023-02-17T02:42:26;100981.27;;;7.02;81.43
24336;BME280;33098;52.400;16.880;2023-02-17T02:44:56;100977.72;;;7.06;81.26
24336;BME280;33098;52.400;16.880;2023-02-17T02:47:50;100968.15;;;7.07;81.13
24336;BME280;33098;52.400;16.880;2023-02-17T03:02:05;100959.53;;;6.90;80.86
24336;BME280;33098;52.400;16.880;2023-02-17T03:07:21;100955.05;;;6.85;81.04
24336;BME280;33098;52.400;16.880;2023-02-17T03:09:55;100952.68;;;6.86;81.09
24336;BME280;33098;52.400;16.880;2023-02-17T03:12:28;100948.44;;;6.87;81.17
24336;BME280;33098;52.400;16.880;2023-02-17T03:15:10;100948.98;;;6.86;81.25
24336;BME280;33098;52.400;16.880;2023-02-17T03:17:42;100942.11;;;6.86;81.23
24336;BME280;33098;52.400;16.880;2023-02-17T03:20:12;100950.80;;;6.92;81.45
24336;BME280;33098;52.400;16.880;2023-02-17T03:22:49;100948.64;;;6.96;81.46
24336;BME280;33098;52.400;16.880;2023-02-17T03:25:19;100952.33;;;6.99;81.47
24336;BME280;33098;52.400;16.880;2023-02-17T03:27:52;100944.64;;;7.01;81.35
24336;BME280;33098;52.400;16.880;2023-02-17T03:30:23;100941.77;;;6.98;81.20
24336;BME280;33098;52.400;16.880;2023-02-17T03:32:50;100934.59;;;6.94;81.15
24336;BME280;33098;52.400;16.880;2023-02-17T03:35:20;100933.87;;;6.88;81.13
24336;BME280;33098;52.400;16.880;2023-02-17T03:37:51;100932.63;;;6.85;81.24
24336;BME280;33098;52.400;16.880;2023-02-17T03:40:20;100940.37;;;6.86;81.36
24336;BME280;33098;52.400;16.880;2023-02-17T03:42:49;100928.23;;;6.94;81.67
24336;BME280;33098;52.400;16.880;2023-02-17T03:45:18;100919.23;;;7.04;81.62
24336;BME280;33098;52.400;16.880;2023-02-17T03:47:59;100916.45;;;7.10;81.67
24336;BME280;33098;52.400;16.880;2023-02-17T03:50:31;100919.16;;;7.12;81.28
24336;BME280;33098;52.400;16.880;2023-02-17T03:53:02;100914.08;;;7.04;81.24
24336;BME280;33098;52.400;16.880;2023-02-17T03:55:37;100914.34;;;7.00;81.30
24336;BME280;33098;52.400;16.880;2023-02-17T03:58:13;100908.42;;;6.99;81.79
24336;BME280;33098;52.400;16.880;2023-02-17T04:00:44;100904.80;;;6.97;82.12
24336;BME280;33098;52.400;16.880;2023-02-17T04:03:11;100898.53;;;6.89;82.27
24336;BME280;33098;52.400;16.880;2023-02-17T04:05:44;100899.75;;;6.77;82.70
24336;BME280;33098;52.400;16.880;2023-02-17T04:08:18;100898.98;;;6.71;83.25
24336;BME280;33098;52.400;16.880;2023-02-17T04:10:50;100899.48;;;6.68;83.43
24336;BME280;33098;52.400;16.880;2023-02-17T04:13:17;100897.05;;;6.65;83.97
24336;BME280;33098;52.400;16.880;2023-02-17T04:15:44;100896.30;;;6.56;84.19
24336;BME280;33098;52.400;16.880;2023-02-17T04:18:17;100892.95;;;6.56;84.67
24336;BME280;33098;52.400;16.880;2023-02-17T04:20:47;100890.70;;;6.55;84.93
24336;BME280;33098;52.400;16.880;2023-02-17T04:23:15;100890.79;;;6.53;85.18
24336;BME280;33098;52.400;16.880;2023-02-17T04:25:43;100890.80;;;6.53;85.50
24336;BME280;33098;52.400;16.880;2023-02-17T04:28:14;100887.66;;;6.62;85.88
24336;BME280;33098;52.400;16.880;2023-02-17T04:30:48;100887.45;;;6.69;86.11
24336;BME280;33098;52.400;16.880;2023-02-17T04:33:18;100887.23;;;6.70;86.17
24336;BME280;33098;52.400;16.880;2023-02-17T04:35:46;100886.86;;;6.70;86.21
24336;BME280;33098;52.400;16.880;2023-02-17T04:38:14;100886.16;;;6.74;86.30
24336;BME280;33098;52.400;16.880;2023-02-17T04:40:41;100879.98;;;6.74;86.40
24336;BME280;33098;52.400;16.880;2023-02-17T04:43:08;100876.10;;;6.74;86.50
24336;BME280;33098;52.400;16.880;2023-02-17T04:45:37;100872.68;;;6.68;86.68
24336;BME280;33098;52.400;16.880;2023-02-17T04:48:05;100870.05;;;6.59;87.12
24336;BME280;33098;52.400;16.880;2023-02-17T04:50:32;100864.30;;;6.51;87.40
24336;BME280;33098;52.400;16.880;2023-02-17T04:53:00;100865.98;;;6.52;87.71
24336;BME280;33098;52.400;16.880;2023-02-17T04:55:27;100860.61;;;6.51;87.91
24336;BME280;33098;52.400;16.880;2023-02-17T04:57:58;100854.23;;;6.51;88.27
24336;BME280;33098;52.400;16.880;2023-02-17T05:00:25;100855.48;;;6.48;88.53
24336;BME280;33098;52.400;16.880;2023-02-17T05:02:53;100856.50;;;6.45;88.94
24336;BME280;33098;52.400;16.880;2023-02-17T05:05:21;100849.34;;;6.47;89.18
24336;BME280;33098;52.400;16.880;2023-02-17T05:07:48;100840.39;;;6.49;89.23
24336;BME280;33098;52.400;16.880;2023-02-17T05:10:18;100835.18;;;6.52;89.48
24336;BME280;33098;52.400;16.880;2023-02-17T05:12:47;100832.37;;;6.48;89.49
24336;BME280;33098;52.400;16.880;2023-02-17T05:15:14;100830.88;;;6.43;89.48
24336;BME280;33098;52.400;16.880;2023-02-17T05:17:49;100836.20;;;6.39;89.70
24336;BME280;33098;52.400;16.880;2023-02-17T05:20:16;100838.94;;;6.41;89.99
24336;BME280;33098;52.400;16.880;2023-02-17T05:22:45;100839.87;;;6.43;90.49
24336;BME280;33098;52.400;16.880;2023-02-17T05:25:13;100839.52;;;6.33;90.42
24336;BME280;33098;52.400;16.880;2023-02-17T05:27:45;100829.67;;;6.30;90.69
24336;BME280;33098;52.400;16.880;2023-02-17T05:30:12;100831.69;;;6.28;90.91
24336;BME280;33098;52.400;16.880;2023-02-17T05:32:39;100831.05;;;6.23;91.01
24336;BME280;33098;52.400;16.880;2023-02-17T05:35:06;100830.52;;;6.17;91.62
24336;BME280;33098;52.400;16.880;2023-02-17T05:37:33;100827.83;;;6.15;91.61
24336;BME280;33098;52.400;16.880;2023-02-17T05:40:00;100826.02;;;6.19;91.93
24336;BME280;33098;52.400;16.880;2023-02-17T05:42:27;100826.79;;;6.18;92.19
24336;BME280;33098;52.400;16.880;2023-02-17T05:44:57;100817.45;;;6.18;92.08
24336;BME280;33098;52.400;16.880;2023-02-17T05:47:27;100813.02;;;6.18;92.18
24336;BME280;33098;52.400;16.880;2023-02-17T05:49:56;100809.00;;;6.17;92.32
24336;BME280;33098;52.400;16.880;2023-02-17T05:52:25;100809.48;;;6.25;92.57
24336;BME280;33098;52.400;16.880;2023-02-17T05:54:55;100800.29;;;6.26;92.50
24336;BME280;33098;52.400;16.880;2023-02-17T05:57:24;100801.80;;;6.27;92.41
24336;BME280;33098;52.400;16.880;2023-02-17T05:59:51;100808.30;;;6.27;92.44
24336;BME280;33098;52.400;16.880;2023-02-17T06:02:20;100803.64;;;6.25;92.38
24336;BME280;33098;52.400;16.880;2023-02-17T06:04:52;100809.35;;;6.27;92.63
24336;BME280;33098;52.400;16.880;2023-02-17T06:07:19;100804.10;;;6.27;92.74
24336;BME280;33098;52.400;16.880;2023-02-17T06:09:46;100811.07;;;6.28;92.98
24336;BME280;33098;52.400;16.880;2023-02-17T06:12:16;100804.84;;;6.23;93.03
24336;BME280;33098;52.400;16.880;2023-02-17T06:14:43;100799.80;;;6.25;93.39
24336;BME280;33098;52.400;16.880;2023-02-17T06:17:12;100792.54;;;6.25;93.67
24336;BME280;33098;52.400;16.880;2023-02-17T06:19:39;100793.20;;;6.26;93.88
24336;BME280;33098;52.400;16.880;2023-02-17T06:22:06;100795.48;;;6.30;93.83
24336;BME280;33098;52.400;16.880;2023-02-17T06:24:35;100791.93;;;6.27;93.75
24336;BME280;33098;52.400;16.880;2023-02-17T06:27:02;100788.55;;;6.30;93.95
24336;BME280;33098;52.400;16.880;2023-02-17T06:29:29;100789.31;;;6.36;94.23
24336;BME280;33098;52.400;16.880;2023-02-17T06:31:57;100790.96;;;6.31;94.27
24336;BME280;33098;52.400;16.880;2023-02-17T06:34:23;100790.60;;;6.29;94.33
24336;BME280;33098;52.400;16.880;2023-02-17T06:36:53;100791.16;;;6.28;94.70
24336;BME280;33098;52.400;16.880;2023-02-17T06:39:21;100792.80;;;6.27;94.85
24336;BME280;33098;52.400;16.880;2023-02-17T06:41:49;100792.40;;;6.27;95.45
24336;BME280;33098;52.400;16.880;2023-02-17T06:44:16;100792.35;;;6.32;95.51
24336;BME280;33098;52.400;16.880;2023-02-17T06:46:48;100789.11;;;6.33;95.74
24336;BME280;33098;52.400;16.880;2023-02-17T06:49:18;100783.57;;;6.34;95.93
24336;BME280;33098;52.400;16.880;2023-02-17T06:51:48;100777.61;;;6.40;96.35
24336;BME280;33098;52.400;16.880;2023-02-17T06:54:16;100771.18;;;6.39;96.43
24336;BME280;33098;52.400;16.880;2023-02-17T06:56:43;100768.31;;;6.43;96.70
24336;BME280;33098;52.400;16.880;2023-02-17T06:59:13;100770.84;;;6.51;96.79
24336;BME280;33098;52.400;16.880;2023-02-17T07:01:40;100771.36;;;6.54;97.02
24336;BME280;33098;52.400;16.880;2023-02-17T07:04:13;100777.38;;;6.57;97.08
24336;BME280;33098;52.400;16.880;2023-02-17T07:06:40;100779.21;;;6.59;97.32
24336;BME280;33098;52.400;16.880;2023-02-17T07:09:10;100779.69;;;6.57;97.47
24336;BME280;33098;52.400;16.880;2023-02-17T07:11:43;100777.26;;;6.56;98.00
24336;BME280;33098;52.400;16.880;2023-02-17T07:14:13;100772.20;;;6.48;98.06
24336;BME280;33098;52.400;16.880;2023-02-17T07:16:40;100769.16;;;6.47;98.39
24336;BME280;33098;52.400;16.880;2023-02-17T07:19:10;100771.76;;;6.47;98.75
24336;BME280;33098;52.400;16.880;2023-02-17T07:21:37;100774.08;;;6.50;99.12
24336;BME280;33098;52.400;16.880;2023-02-17T07:24:04;100768.80;;;6.50;99.40
24336;BME280;33098;52.400;16.880;2023-02-17T07:26:35;100762.55;;;6.54;99.54
24336;BME280;33098;52.400;16.880;2023-02-17T07:29:03;100762.63;;;6.62;99.82
24336;BME280;33098;52.400;16.880;2023-02-17T07:31:30;100761.73;;;6.65;99.78
24336;BME280;33098;52.400;16.880;2023-02-17T07:33:57;100756.60;;;6.69;99.87
24336;BME280;33098;52.400;16.880;2023-02-17T07:36:24;100758.20;;;6.65;100.00
24336;BME280;33098;52.400;16.880;2023-02-17T07:38:51;100754.86;;;6.65;100.00
24336;BME280;33098;52.400;16.880;2023-02-17T07:41:29;100758.29;;;6.64;100.00
24336;BME280;33098;52.400;16.880;2023-02-17T07:44:02;100760.47;;;6.69;100.00
24336;BME280;33098;52.400;16.880;2023-02-17T07:46:32;100758.87;;;6.73;100.00
24336;BME280;33098;52.400;16.880;2023-02-17T07:48:59;100757.40;;;6.77;100.00
24336;BME280;33098;52.400;16.880;2023-02-17T07:51:30;100752.39;;;6.84;100.00
24336;BME280;33098;52.400;16.880;2023-02-17T07:53:57;100746.99;;;6.89;100.00
24336;BME280;33098;52.400;16.880;2023-02-17T07:56:25;100745.79;;;6.94;100.00
24336;BME280;33098;52.400;16.880;2023-02-17T07:58:56;100746.41;;;6.90;100.00
24336;BME280;33098;52.400;16.880;2023-02-17T08:01:24;100747.97;;;6.84;100.00
24336;BME280;33098;52.400;16.880;2023-02-17T08:03:55;100740.45;;;6.86;100.00
24336;BME280;33098;52.400;16.880;2023-02-17T08:06:23;100737.79;;;6.89;100.00
24336;BME280;33098;52.400;16.880;2023-02-17T08:08:52;100742.65;;;6.94;100.00
24336;BME280;33098;52.400;16.880;2023-02-17T08:11:39;100742.43;;;6.97;100.00
24336;BME280;33098;52.400;16.880;2023-02-17T08:14:27;100736.63;;;7.00;100.00
24336;BME280;33098;52.400;16.880;2023-02-17T08:16:55;100736.52;;;6.99;100.00
24336;BME280;33098;52.400;16.880;2023-02-17T08:19:25;100737.45;;;6.95;100.00
24336;BME280;33098;52.400;16.880;2023-02-17T08:21:53;100737.84;;;6.94;100.00
24336;BME280;33098;52.400;16.880;2023-02-17T08:24:21;100739.95;;;6.95;100.00
24336;BME280;33098;52.400;16.880;2023-02-17T08:26:49;100738.21;;;6.91;100.00
24336;BME280;33098;52.400;16.880;2023-02-17T08:29:18;100738.01;;;6.86;100.00
24336;BME280;33098;52.400;16.880;2023-02-17T08:31:56;100737.44;;;6.83;100.00
24336;BME280;33098;52.400;16.880;2023-02-17T08:34:23;100731.16;;;6.85;100.00
24336;BME280;33098;52.400;16.880;2023-02-17T08:36:52;100726.69;;;6.89;100.00
24336;BME280;33098;52.400;16.880;2023-02-17T08:39:19;100724.38;;;6.95;100.00
24336;BME280;33098;52.400;16.880;2023-02-17T08:41:47;100720.86;;;7.01;100.00
24336;BME280;33098;52.400;16.880;2023-02-17T08:44:18;100717.73;;;7.03;100.00
24336;BME280;33098;52.400;16.880;2023-02-17T08:46:52;100715.10;;;7.00;100.00
24336;BME280;33098;52.400;16.880;2023-02-17T08:49:24;100711.50;;;6.95;100.00
24336;BME280;33098;52.400;16.880;2023-02-17T08:51:52;100706.79;;;6.94;100.00
24336;BME280;33098;52.400;16.880;2023-02-17T08:54:21;100703.33;;;6.99;100.00
24336;BME280;33098;52.400;16.880;2023-02-17T08:56:48;100700.63;;;7.09;100.00
24336;BME280;33098;52.400;16.880;2023-02-17T08:59:15;100698.98;;;7.13;100.00
24336;BME280;33098;52.400;16.880;2023-02-17T09:01:43;100698.58;;;7.17;100.00
24336;BME280;33098;52.400;16.880;2023-02-17T09:04:13;100696.43;;;7.26;100.00
24336;BME280;33098;52.400;16.880;2023-02-17T09:06:50;100687.36;;;7.30;100.00
24336;BME280;33098;52.400;16.880;2023-02-17T09:09:20;100682.33;;;7.23;100.00
24336;BME280;33098;52.400;16.880;2023-02-17T09:11:56;100679.23;;;7.22;100.00
24336;BME280;33098;52.400;16.880;2023-02-17T09:14:24;100679.27;;;7.18;100.00
24336;BME280;33098;52.400;16.880;2023-02-17T09:17:05;100678.65;;;7.19;100.00
24336;BME280;33098;52.400;16.880;2023-02-17T09:19:32;100680.67;;;7.24;100.00
24336;BME280;33098;52.400;16.880;2023-02-17T09:22:00;100678.15;;;7.33;100.00
24336;BME280;33098;52.400;16.880;2023-02-17T09:24:29;100674.21;;;7.34;100.00
24336;BME280;33098;52.400;16.880;2023-02-17T09:27:00;100675.13;;;7.37;100.00
24336;BME280;33098;52.400;16.880;2023-02-17T09:29:32;100672.30;;;7.37;100.00
24336;BME280;33098;52.400;16.880;2023-02-17T09:31:59;100664.90;;;7.40;100.00
24336;BME280;33098;52.400;16.880;2023-02-17T09:34:26;100663.65;;;7.48;100.00
24336;BME280;33098;52.400;16.880;2023-02-17T09:36:53;100660.02;;;7.50;100.00
24336;BME280;33098;52.400;16.880;2023-02-17T09:39:19;100656.10;;;7.48;100.00
24336;BME280;33098;52.400;16.880;2023-02-17T09:41:48;100646.31;;;7.52;100.00
24336;BME280;33098;52.400;16.880;2023-02-17T09:44:23;100649.69;;;7.60;100.00
24336;BME280;33098;52.400;16.880;2023-02-17T09:47:00;100641.05;;;7.65;100.00
24336;BME280;33098;52.400;16.880;2023-02-17T09:49:34;100641.64;;;7.76;100.00
24336;BME280;33098;52.400;16.880;2023-02-17T09:55:03;100638.55;;;7.83;100.00
24336;BME280;33098;52.400;16.880;2023-02-17T09:57:35;100638.67;;;7.83;100.00
24336;BME280;33098;52.400;16.880;2023-02-17T10:00:11;100628.60;;;7.92;100.00
24336;BME280;33098;52.400;16.880;2023-02-17T10:02:45;100621.08;;;7.95;100.00
24336;BME280;33098;52.400;16.880;2023-02-17T10:05:19;100611.20;;;7.95;100.00
24336;BME280;33098;52.400;16.880;2023-02-17T10:07:52;100608.37;;;7.95;100.00
24336;BME280;33098;52.400;16.880;2023-02-17T10:10:27;100608.65;;;7.99;100.00
24336;BME280;33098;52.400;16.880;2023-02-17T10:12:59;100609.04;;;8.01;100.00
24336;BME280;33098;52.400;16.880;2023-02-17T10:15:30;100610.45;;;8.01;100.00
24336;BME280;33098;52.400;16.880;2023-02-17T10:18:17;100604.08;;;8.02;100.00
24336;BME280;33098;52.400;16.880;2023-02-17T10:23:15;100599.09;;;7.97;100.00
24336;BME280;33098;52.400;16.880;2023-02-17T10:26:46;100598.54;;;7.97;100.00
24336;BME280;33098;52.400;16.880;2023-02-17T10:31:44;100587.63;;;8.13;100.00
24336;BME280;33098;52.400;16.880;2023-02-17T10:34:19;100581.55;;;8.16;100.00
24336;BME280;33098;52.400;16.880;2023-02-17T10:37:04;100574.17;;;8.16;100.00
24336;BME280;33098;52.400;16.880;2023-02-17T10:39:48;100566.66;;;8.14;100.00
24336;BME280;33098;52.400;16.880;2023-02-17T10:42:34;100566.45;;;8.12;100.00
24336;BME280;33098;52.400;16.880;2023-02-17T10:45:09;100553.98;;;8.16;100.00
24336;BME280;33098;52.400;16.880;2023-02-17T10:47:37;100547.17;;;8.20;100.00
24336;BME280;33098;52.400;16.880;2023-02-17T10:50:14;100542.54;;;8.24;100.00
24336;BME280;33098;52.400;16.880;2023-02-17T10:52:43;100543.84;;;8.25;100.00
24336;BME280;33098;52.400;16.880;2023-02-17T10:55:37;100529.95;;;8.22;100.00
24336;BME280;33098;52.400;16.880;2023-02-17T10:58:18;100518.35;;;8.26;100.00
24336;BME280;33098;52.400;16.880;2023-02-17T11:00:52;100508.48;;;8.30;100.00
24336;BME280;33098;52.400;16.880;2023-02-17T11:03:22;100498.23;;;8.38;100.00
24336;BME280;33098;52.400;16.880;2023-02-17T11:06:03;100490.31;;;8.46;100.00
24336;BME280;33098;52.400;16.880;2023-02-17T11:08:33;100484.35;;;8.50;100.00
24336;BME280;33098;52.400;16.880;2023-02-17T11:13:38;100469.86;;;8.58;100.00
24336;BME280;33098;52.400;16.880;2023-02-17T11:16:05;100466.02;;;8.57;100.00
24336;BME280;33098;52.400;16.880;2023-02-17T11:18:35;100457.69;;;8.60;100.00
24336;BME280;33098;52.400;16.880;2023-02-17T11:21:09;100449.46;;;8.58;100.00
24336;BME280;33098;52.400;16.880;2023-02-17T11:23:51;100440.52;;;8.60;100.00
24336;BME280;33098;52.400;16.880;2023-02-17T11:26:25;100435.20;;;8.62;100.00
24336;BME280;33098;52.400;16.880;2023-02-17T11:28:52;100422.79;;;8.65;100.00
24336;BME280;33098;52.400;16.880;2023-02-17T11:31:28;100422.09;;;8.65;100.00
24336;BME280;33098;52.400;16.880;2023-02-17T11:33:56;100408.33;;;8.62;100.00
24336;BME280;33098;52.400;16.880;2023-02-17T11:36:25;100393.54;;;8.64;100.00
24336;BME280;33098;52.400;16.880;2023-02-17T11:38:52;100392.38;;;8.63;100.00
24336;BME280;33098;52.400;16.880;2023-02-17T11:41:19;100388.39;;;8.66;100.00
24336;BME280;33098;52.400;16.880;2023-02-17T11:43:56;100378.20;;;8.68;100.00
24336;BME280;33098;52.400;16.880;2023-02-17T11:54:20;100365.65;;;8.78;100.00
24336;BME280;33098;52.400;16.880;2023-02-17T11:57:29;100360.22;;;8.82;100.00
24336;BME280;33098;52.400;16.880;2023-02-17T12:00:15;100356.20;;;8.86;100.00
24336;BME280;33098;52.400;16.880;2023-02-17T12:05:30;100346.10;;;8.98;100.00
24336;BME280;33098;52.400;16.880;2023-02-17T12:14:07;100325.27;;;8.91;100.00
24336;BME280;33098;52.400;16.880;2023-02-17T12:19:50;100309.88;;;8.90;100.00
24336;BME280;33098;52.400;16.880;2023-02-17T12:22:54;100305.02;;;8.87;100.00
24336;BME280;33098;52.400;16.880;2023-02-17T12:25:27;100299.52;;;8.85;100.00
24336;BME280;33098;52.400;16.880;2023-02-17T12:28:03;100298.16;;;8.86;100.00
24336;BME280;33098;52.400;16.880;2023-02-17T12:31:06;100294.52;;;8.90;100.00
24336;BME280;33098;52.400;16.880;2023-02-17T12:36:37;100289.44;;;8.94;100.00
24336;BME280;33098;52.400;16.880;2023-02-17T12:39:16;100283.14;;;8.93;100.00
24336;BME280;33098;52.400;16.880;2023-02-17T12:44:23;100268.30;;;8.95;100.00
24336;BME280;33098;52.400;16.880;2023-02-17T12:46:55;100264.34;;;8.96;100.00
24336;BME280;33098;52.400;16.880;2023-02-17T12:49:35;100259.88;;;8.96;100.00
24336;BME280;33098;52.400;16.880;2023-02-17T12:54:35;100246.46;;;8.96;100.00
24336;BME280;33098;52.400;16.880;2023-02-17T12:57:18;100237.28;;;8.95;100.00
24336;BME280;33098;52.400;16.880;2023-02-17T12:59:49;100233.61;;;8.95;100.00
24336;BME280;33098;52.400;16.880;2023-02-17T13:02:20;100224.71;;;8.93;100.00
24336;BME280;33098;52.400;16.880;2023-02-17T13:04:51;100214.21;;;8.94;100.00
24336;BME280;33098;52.400;16.880;2023-02-17T13:10:19;100197.27;;;8.98;100.00
24336;BME280;33098;52.400;16.880;2023-02-17T13:12:56;100195.30;;;9.01;100.00
24336;BME280;33098;52.400;16.880;2023-02-17T13:15:30;100189.13;;;9.00;100.00
24336;BME280;33098;52.400;16.880;2023-02-17T13:18:00;100185.52;;;9.01;100.00
24336;BME280;33098;52.400;16.880;2023-02-17T13:20:54;100185.70;;;9.04;100.00
24336;BME280;33098;52.400;16.880;2023-02-17T13:23:33;100180.61;;;9.08;100.00
24336;BME280;33098;52.400;16.880;2023-02-17T13:28:39;100165.21;;;9.14;100.00
24336;BME280;33098;52.400;16.880;2023-02-17T13:31:17;100153.30;;;9.11;100.00
24336;BME280;33098;52.400;16.880;2023-02-17T13:33:49;100142.27;;;9.02;100.00
24336;BME280;33098;52.400;16.880;2023-02-17T13:36:39;100141.91;;;8.97;100.00
24336;BME280;33098;52.400;16.880;2023-02-17T13:41:55;100122.71;;;8.94;100.00
24336;BME280;33098;52.400;16.880;2023-02-17T13:44:51;100111.40;;;8.89;100.00
24336;BME280;33098;52.400;16.880;2023-02-17T13:47:29;100102.11;;;8.83;100.00
24336;BME280;33098;52.400;16.880;2023-02-17T13:50:00;100086.75;;;8.76;100.00
24336;BME280;33098;52.400;16.880;2023-02-17T13:52:28;100084.33;;;8.73;100.00
24336;BME280;33098;52.400;16.880;2023-02-17T13:55:01;100082.30;;;8.72;100.00
24336;BME280;33098;52.400;16.880;2023-02-17T13:57:30;100075.42;;;8.72;100.00
24336;BME280;33098;52.400;16.880;2023-02-17T14:00:26;100071.45;;;8.70;100.00
24336;BME280;33098;52.400;16.880;2023-02-17T14:02:58;100061.41;;;8.72;100.00
24336;BME280;33098;52.400;16.880;2023-02-17T14:05:47;100059.34;;;8.74;100.00
24336;BME280;33098;52.400;16.880;2023-02-17T14:08:41;100049.98;;;8.73;100.00
24336;BME280;33098;52.400;16.880;2023-02-17T14:11:18;100043.76;;;8.74;100.00
24336;BME280;33098;52.400;16.880;2023-02-17T14:13:47;100040.16;;;8.74;100.00
24336;BME280;33098;52.400;16.880;2023-02-17T14:16:36;100038.54;;;8.75;100.00
24336;BME280;33098;52.400;16.880;2023-02-17T14:19:15;100034.71;;;8.74;100.00
24336;BME280;33098;52.400;16.880;2023-02-17T14:21:44;100018.95;;;8.74;100.00
24336;BME280;33098;52.400;16.880;2023-02-17T14:24:40;100021.95;;;8.77;100.00